MSC Maeva — H9TF — position and weather

sailwx.info

Track history (hours):
 
Tides and Currents Weather Stations Pressure Air Temp Water Temp Dewpoint Dewpoint Depression Visibility Wind Speed Wind Dir Waves Ship Positions

MSC Maeva

Last reported at 2014-Nov-19 05:07 UTC. Time now 2014-Nov-21 16:28 UTC.
Position N 29°41' E 122°36'.

Type: Ship (hazmat cat A). MMSI: 371851000.

Date/timePositionNaut miles runAvg speedWind from/ knotsBaromVisibWave heightAir tempDewpointWater temp
2014-Nov-19 05:07N 29°41' E 122°36'1118.8
2014-Nov-19 04:33N 29°43' E 122°24'1312.7
2014-Nov-19 03:33N 29°51' E 122°12'9 8.9
2014-Nov-19 02:33N 29°54' E 122°02'0 0.0
2014-Nov-19 00:33N 29°54' E 122°02'0 0.0
2014-Nov-18 23:15N 29°54' E 122°02'0 0.0
2014-Nov-18 22:27N 29°54' E 122°02'0 0.0
2014-Nov-18 21:33N 29°54' E 122°02'0 0.0
2014-Nov-18 20:33N 29°54' E 122°02'0 0.0
2014-Nov-18 19:21N 29°54' E 122°02'0 0.0
2014-Nov-18 18:27N 29°54' E 122°02'0 0.0
2014-Nov-18 17:27N 29°54' E 122°02'0 0.0
2014-Nov-18 16:15N 29°54' E 122°02'0 0.0
2014-Nov-18 15:21N 29°54' E 122°02'0 0.0
2014-Nov-18 14:09N 29°54' E 122°02'0 0.0
2014-Nov-18 13:33N 29°54' E 122°02'0 0.0
2014-Nov-18 12:27N 29°54' E 122°02'0 0.0
2014-Nov-18 09:32N 29°54' E 122°02'0 0.0
2014-Nov-18 05:32N 29°54' E 122°02'0 0.0
2014-Nov-18 03:05N 29°54' E 122°02'1 1.7
2014-Nov-18 02:33N 29°54' E 122°03'8 8.5
2014-Nov-18 01:33N 29°51' E 122°12'9 9.0
2014-Nov-18 00:33N 29°45' E 122°20'10 9.9
2014-Nov-17 23:33N 29°43' E 122°31'1412.2
2014-Nov-17 22:26N 29°46' E 122°47'8210.3
2014-Nov-17 14:25N 31°06' E 122°23'1213.9
2014-Nov-17 13:33N 31°11' E 122°10'1514.6
2014-Nov-17 12:33N 31°16' E 121°54'1313.3
2014-Nov-17 11:34N 31°20' E 121°40'0 0.5
2014-Nov-17 10:31N 31°20' E 121°39'0 0.0
2014-Nov-17 09:31N 31°20' E 121°39'0 0.0
2014-Nov-17 08:31N 31°20' E 121°39'0 0.0
2014-Nov-17 07:31N 31°20' E 121°39'0 0.0
2014-Nov-17 06:31N 31°20' E 121°39'0 0.0
2014-Nov-17 05:31N 31°20' E 121°39'0 0.0
2014-Nov-17 04:31N 31°20' E 121°39'0 0.0
2014-Nov-17 03:31N 31°20' E 121°39'0 0.0
2014-Nov-17 02:31N 31°20' E 121°39'0 0.0
2014-Nov-17 01:31N 31°20' E 121°39'0 0.0
2014-Nov-17 00:31N 31°20' E 121°39'0 0.0
2014-Nov-16 23:31N 31°20' E 121°39'0 0.0
2014-Nov-16 22:31N 31°20' E 121°39'0 0.0
2014-Nov-16 21:28N 31°20' E 121°39'0 0.0
2014-Nov-16 20:31N 31°20' E 121°39'0 0.0
2014-Nov-16 19:31N 31°20' E 121°39'0 0.0
2014-Nov-16 18:31N 31°20' E 121°39'0 0.0
2014-Nov-16 17:31N 31°20' E 121°39'0 0.0
2014-Nov-16 16:31N 31°20' E 121°39'0 0.0
2014-Nov-16 15:31N 31°20' E 121°39'0 0.0
2014-Nov-16 14:31N 31°20' E 121°39'0 0.0
2014-Nov-16 13:31N 31°20' E 121°39'0 0.0
2014-Nov-16 12:31N 31°20' E 121°39'0 0.0
2014-Nov-16 11:34N 31°20' E 121°39'1 0.5
2014-Nov-16 10:34N 31°21' E 121°40'7 6.7
2014-Nov-16 09:34N 31°18' E 121°47'1110.7
2014-Nov-16 08:33N 31°15' E 121°59'10 9.8
2014-Nov-16 07:33N 31°11' E 122°10'9 9.2
2014-Nov-16 06:33N 31°06' E 122°19'9 9.3
2014-Nov-16 05:33N 31°06' E 122°30'423 8.2
2014-Nov-14 02:10N 24°39' E 119°16'1116.2
2014-Nov-14 01:28N 24°33' E 119°06'2116.5
2014-Nov-14 00:13N 24°21' E 118°48'2614.6
2014-Nov-13 22:25N 24°14' E 118°20'1112.5
2014-Nov-13 21:33N 24°20' E 118°10'10 9.5
2014-Nov-13 20:31N 24°26' E 118°02'0 0.1
2014-Nov-13 19:30N 24°27' E 118°02'0 0.0
2014-Nov-13 15:30N 24°27' E 118°02'0 0.0
2014-Nov-13 14:12N 24°27' E 118°02'0 0.0
2014-Nov-13 10:15N 24°27' E 118°02'3 4.0
2014-Nov-13 09:33N 24°25' E 118°04'10 9.7
2014-Nov-13 08:33N 24°19' E 118°12'10 9.9
2014-Nov-13 07:33N 24°12' E 118°20'8 8.2
2014-Nov-13 06:33N 24°04' E 118°23'1 1.1
2014-Nov-13 05:33N 24°05' E 118°22'9 8.8
2014-Nov-13 04:33N 24°10' E 118°30'9 8.4
2014-Nov-13 03:30N 24°15' E 118°38'8 8.9
2014-Nov-13 02:33N 24°20' E 118°46'13 8.7
2014-Nov-13 01:05N 24°27' E 118°57'5 8.6
2014-Nov-13 00:32N 24°28' E 119°02'9 8.8
2014-Nov-12 23:33N 24°32' E 119°11'7 6.0
2014-Nov-12 22:23N 24°36' E 119°18'5 5.7
2014-Nov-12 21:33N 24°39' E 119°13'  
Track history (hours):
 
Tides and Currents Weather Stations Pressure Air Temp Water Temp Dewpoint Dewpoint Depression Visibility Wind Speed Wind Dir Waves Ship Positions

MSC Maeva

Last reported at 2014-Nov-19 05:07 UTC. Time now 2014-Nov-21 16:28 UTC.
Position N 29°41' E 122°36'.

Type: Ship (hazmat cat A). MMSI: 371851000.

Date/timePositionNaut miles runAvg speedWind from/ knotsBaromVisibWave heightAir tempDewpointWater temp
2014-Nov-19 05:07N 29°41' E 122°36'1118.8
2014-Nov-19 04:33N 29°43' E 122°24'1312.7
2014-Nov-19 03:33N 29°51' E 122°12'9 8.9
2014-Nov-19 02:33N 29°54' E 122°02'0 0.0
2014-Nov-19 00:33N 29°54' E 122°02'0 0.0
2014-Nov-18 23:15N 29°54' E 122°02'0 0.0
2014-Nov-18 22:27N 29°54' E 122°02'0 0.0
2014-Nov-18 21:33N 29°54' E 122°02'0 0.0
2014-Nov-18 20:33N 29°54' E 122°02'0 0.0
2014-Nov-18 19:21N 29°54' E 122°02'0 0.0
2014-Nov-18 18:27N 29°54' E 122°02'0 0.0
2014-Nov-18 17:27N 29°54' E 122°02'0 0.0
2014-Nov-18 16:15N 29°54' E 122°02'0 0.0
2014-Nov-18 15:21N 29°54' E 122°02'0 0.0
2014-Nov-18 14:09N 29°54' E 122°02'0 0.0
2014-Nov-18 13:33N 29°54' E 122°02'0 0.0
2014-Nov-18 12:27N 29°54' E 122°02'0 0.0
2014-Nov-18 09:32N 29°54' E 122°02'0 0.0
2014-Nov-18 05:32N 29°54' E 122°02'0 0.0
2014-Nov-18 03:05N 29°54' E 122°02'1 1.7
2014-Nov-18 02:33N 29°54' E 122°03'8 8.5
2014-Nov-18 01:33N 29°51' E 122°12'9 9.0
2014-Nov-18 00:33N 29°45' E 122°20'10 9.9
2014-Nov-17 23:33N 29°43' E 122°31'1412.2
2014-Nov-17 22:26N 29°46' E 122°47'8210.3
2014-Nov-17 14:25N 31°06' E 122°23'1213.9
2014-Nov-17 13:33N 31°11' E 122°10'1514.6
2014-Nov-17 12:33N 31°16' E 121°54'1313.3
2014-Nov-17 11:34N 31°20' E 121°40'0 0.5
2014-Nov-17 10:31N 31°20' E 121°39'0 0.0
2014-Nov-17 09:31N 31°20' E 121°39'0 0.0
2014-Nov-17 08:31N 31°20' E 121°39'0 0.0
2014-Nov-17 07:31N 31°20' E 121°39'0 0.0
2014-Nov-17 06:31N 31°20' E 121°39'0 0.0
2014-Nov-17 05:31N 31°20' E 121°39'0 0.0
2014-Nov-17 04:31N 31°20' E 121°39'0 0.0
2014-Nov-17 03:31N 31°20' E 121°39'0 0.0
2014-Nov-17 02:31N 31°20' E 121°39'0 0.0
2014-Nov-17 01:31N 31°20' E 121°39'0 0.0
2014-Nov-17 00:31N 31°20' E 121°39'0 0.0
2014-Nov-16 23:31N 31°20' E 121°39'0 0.0
2014-Nov-16 22:31N 31°20' E 121°39'0 0.0
2014-Nov-16 21:28N 31°20' E 121°39'0 0.0
2014-Nov-16 20:31N 31°20' E 121°39'0 0.0
2014-Nov-16 19:31N 31°20' E 121°39'0 0.0
2014-Nov-16 18:31N 31°20' E 121°39'0 0.0
2014-Nov-16 17:31N 31°20' E 121°39'0 0.0
2014-Nov-16 16:31N 31°20' E 121°39'0 0.0
2014-Nov-16 15:31N 31°20' E 121°39'0 0.0
2014-Nov-16 14:31N 31°20' E 121°39'0 0.0
2014-Nov-16 13:31N 31°20' E 121°39'0 0.0
2014-Nov-16 12:31N 31°20' E 121°39'0 0.0
2014-Nov-16 11:34N 31°20' E 121°39'1 0.5
2014-Nov-16 10:34N 31°21' E 121°40'7 6.7
2014-Nov-16 09:34N 31°18' E 121°47'1110.7
2014-Nov-16 08:33N 31°15' E 121°59'10 9.8
2014-Nov-16 07:33N 31°11' E 122°10'9 9.2
2014-Nov-16 06:33N 31°06' E 122°19'9 9.3
2014-Nov-16 05:33N 31°06' E 122°30'423 8.2
2014-Nov-14 02:10N 24°39' E 119°16'1116.2
2014-Nov-14 01:28N 24°33' E 119°06'2116.5
2014-Nov-14 00:13N 24°21' E 118°48'2614.6
2014-Nov-13 22:25N 24°14' E 118°20'1112.5
2014-Nov-13 21:33N 24°20' E 118°10'10 9.5
2014-Nov-13 20:31N 24°26' E 118°02'0 0.1
2014-Nov-13 19:30N 24°27' E 118°02'0 0.0
2014-Nov-13 15:30N 24°27' E 118°02'0 0.0
2014-Nov-13 14:12N 24°27' E 118°02'0 0.0
2014-Nov-13 10:15N 24°27' E 118°02'3 4.0
2014-Nov-13 09:33N 24°25' E 118°04'10 9.7
2014-Nov-13 08:33N 24°19' E 118°12'10 9.9
2014-Nov-13 07:33N 24°12' E 118°20'8 8.2
2014-Nov-13 06:33N 24°04' E 118°23'1 1.1
2014-Nov-13 05:33N 24°05' E 118°22'9 8.8
2014-Nov-13 04:33N 24°10' E 118°30'9 8.4
2014-Nov-13 03:30N 24°15' E 118°38'8 8.9
2014-Nov-13 02:33N 24°20' E 118°46'13 8.7
2014-Nov-13 01:05N 24°27' E 118°57'5 8.6
2014-Nov-13 00:32N 24°28' E 119°02'9 8.8
2014-Nov-12 23:33N 24°32' E 119°11'7 6.0
2014-Nov-12 22:23N 24°36' E 119°18'5 5.7
2014-Nov-12 21:33N 24°39' E 119°13'  

Dump ship's entire track history